sensor_id;sensor_type;location;lat;lon;timestamp;pressure;altitude;pressure_sealevel;temperature;humidity
45888;BME280;31595;51.418;7.572;2023-05-02T00:00:51;100479.59;;;14.64;59.59
45888;BME280;31595;51.418;7.572;2023-05-02T00:03:19;100476.41;;;14.66;59.03
45888;BME280;31595;51.418;7.572;2023-05-02T00:05:47;100485.03;;;14.60;59.89
45888;BME280;31595;51.418;7.572;2023-05-02T00:08:15;100481.09;;;14.61;59.90
45888;BME280;31595;51.418;7.572;2023-05-02T00:10:43;100475.50;;;14.61;59.49
45888;BME280;31595;51.418;7.572;2023-05-02T00:13:10;100476.63;;;14.60;59.90
45888;BME280;31595;51.418;7.572;2023-05-02T00:15:37;100480.78;;;14.54;59.35
45888;BME280;31595;51.418;7.572;2023-05-02T00:18:04;100482.75;;;14.54;59.15
45888;BME280;31595;51.418;7.572;2023-05-02T00:20:31;100486.38;;;14.54;59.14
45888;BME280;31595;51.418;7.572;2023-05-02T00:22:59;100479.66;;;14.47;59.59
45888;BME280;31595;51.418;7.572;2023-05-02T00:25:27;100477.34;;;14.49;60.34
45888;BME280;31595;51.418;7.572;2023-05-02T00:27:54;100478.44;;;14.35;60.21
45888;BME280;31595;51.418;7.572;2023-05-02T00:30:22;100482.91;;;14.28;59.97
45888;BME280;31595;51.418;7.572;2023-05-02T00:32:51;100487.78;;;14.18;60.08
45888;BME280;31595;51.418;7.572;2023-05-02T00:35:19;100489.59;;;14.14;59.92
45888;BME280;31595;51.418;7.572;2023-05-02T00:37:46;100487.13;;;14.13;60.63
45888;BME280;31595;51.418;7.572;2023-05-02T00:40:13;100498.34;;;14.13;61.53
45888;BME280;31595;51.418;7.572;2023-05-02T00:42:42;100496.88;;;14.15;61.29
45888;BME280;31595;51.418;7.572;2023-05-02T00:45:09;100510.38;;;14.13;61.61
45888;BME280;31595;51.418;7.572;2023-05-02T00:47:37;100509.53;;;14.13;60.59
45888;BME280;31595;51.418;7.572;2023-05-02T00:50:05;100504.91;;;14.17;60.94
45888;BME280;31595;51.418;7.572;2023-05-02T00:52:33;100513.13;;;14.22;61.72
45888;BME280;31595;51.418;7.572;2023-05-02T00:55:01;100498.44;;;14.25;60.68
45888;BME280;31595;51.418;7.572;2023-05-02T00:57:28;100503.38;;;14.28;60.67
45888;BME280;31595;51.418;7.572;2023-05-02T00:59:59;100503.38;;;14.28;60.66
45888;BME280;31595;51.418;7.572;2023-05-02T01:02:33;100508.13;;;14.28;61.42
45888;BME280;31595;51.418;7.572;2023-05-02T01:05:10;100508.63;;;14.30;60.71
45888;BME280;31595;51.418;7.572;2023-05-02T01:07:57;100511.09;;;14.31;60.58
45888;BME280;31595;51.418;7.572;2023-05-02T01:10:37;100520.66;;;14.30;61.26
45888;BME280;31595;51.418;7.572;2023-05-02T01:13:15;100514.38;;;14.33;61.68
45888;BME280;31595;51.418;7.572;2023-05-02T01:15:46;100512.88;;;14.36;61.68
45888;BME280;31595;51.418;7.572;2023-05-02T01:18:21;100516.03;;;14.34;62.26
45888;BME280;31595;51.418;7.572;2023-05-02T01:20:54;100520.94;;;14.37;62.06
45888;BME280;31595;51.418;7.572;2023-05-02T01:23:27;100512.88;;;14.36;62.24
45888;BME280;31595;51.418;7.572;2023-05-02T01:26:05;100524.22;;;14.39;61.14
45888;BME280;31595;51.418;7.572;2023-05-02T01:28:44;100522.13;;;14.36;62.60
45888;BME280;31595;51.418;7.572;2023-05-02T01:31:14;100522.94;;;14.37;62.82
45888;BME280;31595;51.418;7.572;2023-05-02T01:33:43;100525.75;;;14.37;62.50
45888;BME280;31595;51.418;7.572;2023-05-02T01:36:13;100532.84;;;14.34;63.03
45888;BME280;31595;51.418;7.572;2023-05-02T01:38:42;100533.66;;;14.35;62.37
45888;BME280;31595;51.418;7.572;2023-05-02T01:41:11;100528.88;;;14.35;62.78
45888;BME280;31595;51.418;7.572;2023-05-02T01:43:39;100537.59;;;14.34;61.87
45888;BME280;31595;51.418;7.572;2023-05-02T01:46:10;100535.66;;;14.34;63.25
45888;BME280;31595;51.418;7.572;2023-05-02T01:48:43;100540.06;;;14.35;62.76
45888;BME280;31595;51.418;7.572;2023-05-02T01:51:14;100539.59;;;14.33;62.22
45888;BME280;31595;51.418;7.572;2023-05-02T01:53:44;100543.56;;;14.32;63.12
45888;BME280;31595;51.418;7.572;2023-05-02T01:56:12;100540.75;;;14.32;61.76
45888;BME280;31595;51.418;7.572;2023-05-02T01:58:42;100551.34;;;14.27;63.18
45888;BME280;31595;51.418;7.572;2023-05-02T02:01:13;100546.88;;;14.26;62.54
45888;BME280;31595;51.418;7.572;2023-05-02T02:03:40;100556.44;;;14.25;63.29
45888;BME280;31595;51.418;7.572;2023-05-02T02:06:09;100557.28;;;14.25;62.84
45888;BME280;31595;51.418;7.572;2023-05-02T02:08:37;100562.88;;;14.25;62.51
45888;BME280;31595;51.418;7.572;2023-05-02T02:11:08;100562.06;;;14.25;63.35
45888;BME280;31595;51.418;7.572;2023-05-02T02:13:42;100569.97;;;14.23;63.13
45888;BME280;31595;51.418;7.572;2023-05-02T02:16:13;100565.19;;;14.23;62.29
45888;BME280;31595;51.418;7.572;2023-05-02T02:18:45;100572.28;;;14.20;62.73
45888;BME280;31595;51.418;7.572;2023-05-02T02:21:16;100581.19;;;14.23;63.65
45888;BME280;31595;51.418;7.572;2023-05-02T02:23:46;100586.31;;;14.20;63.17
45888;BME280;31595;51.418;7.572;2023-05-02T02:26:14;100574.44;;;14.15;64.14
45888;BME280;31595;51.418;7.572;2023-05-02T02:28:44;100582.72;;;14.02;64.37
45888;BME280;31595;51.418;7.572;2023-05-02T02:31:18;100583.09;;;14.01;63.99
45888;BME280;31595;51.418;7.572;2023-05-02T02:33:46;100584.22;;;14.00;63.50
45888;BME280;31595;51.418;7.572;2023-05-02T02:36:18;100584.22;;;14.00;63.67
45888;BME280;31595;51.418;7.572;2023-05-02T02:38:51;100585.56;;;13.94;63.27
45888;BME280;31595;51.418;7.572;2023-05-02T02:41:26;100593.84;;;13.90;64.78
45888;BME280;31595;51.418;7.572;2023-05-02T02:43:59;100599.75;;;13.89;64.15
45888;BME280;31595;51.418;7.572;2023-05-02T02:46:41;100599.28;;;13.87;64.40
45888;BME280;31595;51.418;7.572;2023-05-02T02:49:20;100595.66;;;13.86;63.96
45888;BME280;31595;51.418;7.572;2023-05-02T02:51:57;100595.50;;;13.83;64.89
45888;BME280;31595;51.418;7.572;2023-05-02T02:54:33;100605.72;;;13.78;65.48
45888;BME280;31595;51.418;7.572;2023-05-02T02:57:06;100601.75;;;13.79;65.36
45888;BME280;31595;51.418;7.572;2023-05-02T02:59:48;100607.34;;;13.79;64.42
45888;BME280;31595;51.418;7.572;2023-05-02T03:02:21;100604.09;;;13.77;65.04
45888;BME280;31595;51.418;7.572;2023-05-02T03:04:53;100600.13;;;13.78;65.29
45888;BME280;31595;51.418;7.572;2023-05-02T03:07:23;100613.47;;;13.73;64.26
45888;BME280;31595;51.418;7.572;2023-05-02T03:09:53;100622.69;;;13.73;65.50
45888;BME280;31595;51.418;7.572;2023-05-02T03:12:20;100618.56;;;13.71;64.22
45888;BME280;31595;51.418;7.572;2023-05-02T03:14:47;100622.22;;;13.71;64.23
45888;BME280;31595;51.418;7.572;2023-05-02T03:17:15;100626.81;;;13.76;65.16
45888;BME280;31595;51.418;7.572;2023-05-02T03:19:44;100624.16;;;13.71;64.56
45888;BME280;31595;51.418;7.572;2023-05-02T03:22:12;100625.34;;;13.70;64.61
45888;BME280;31595;51.418;7.572;2023-05-02T03:24:39;100620.56;;;13.70;64.66
45888;BME280;31595;51.418;7.572;2023-05-02T03:27:06;100623.84;;;13.72;64.45
45888;BME280;31595;51.418;7.572;2023-05-02T03:29:33;100633.41;;;13.71;64.60
45888;BME280;31595;51.418;7.572;2023-05-02T03:32:01;100621.72;;;13.69;65.50
45888;BME280;31595;51.418;7.572;2023-05-02T03:34:28;100632.06;;;13.69;65.53
45888;BME280;31595;51.418;7.572;2023-05-02T03:36:56;100633.41;;;13.71;64.76
45888;BME280;31595;51.418;7.572;2023-05-02T03:39:24;100635.84;;;13.73;65.30
45888;BME280;31595;51.418;7.572;2023-05-02T03:41:51;100640.16;;;13.70;65.21
45888;BME280;31595;51.418;7.572;2023-05-02T03:44:19;100638.03;;;13.67;64.73
45888;BME280;31595;51.418;7.572;2023-05-02T03:46:46;100649.34;;;13.71;65.18
45888;BME280;31595;51.418;7.572;2023-05-02T03:49:13;100644.59;;;13.71;65.59
45888;BME280;31595;51.418;7.572;2023-05-02T03:51:40;100646.22;;;13.72;64.39
45888;BME280;31595;51.418;7.572;2023-05-02T03:54:09;100654.31;;;13.74;65.54
45888;BME280;31595;51.418;7.572;2023-05-02T03:56:36;100655.94;;;13.75;65.48
45888;BME280;31595;51.418;7.572;2023-05-02T03:59:04;100647.53;;;13.75;64.87
45888;BME280;31595;51.418;7.572;2023-05-02T04:01:31;100651.34;;;13.70;64.52
45888;BME280;31595;51.418;7.572;2023-05-02T04:03:58;100647.41;;;13.71;65.12
45888;BME280;31595;51.418;7.572;2023-05-02T04:06:25;100659.09;;;13.73;64.97
45888;BME280;31595;51.418;7.572;2023-05-02T04:08:53;100661.88;;;13.65;65.39
45888;BME280;31595;51.418;7.572;2023-05-02T04:11:25;100669.94;;;13.66;64.33
45888;BME280;31595;51.418;7.572;2023-05-02T04:13:55;100662.03;;;13.68;64.61
45888;BME280;31595;51.418;7.572;2023-05-02T04:16:22;100664.34;;;13.66;64.25
45888;BME280;31595;51.418;7.572;2023-05-02T04:18:50;100659.06;;;13.65;65.52
45888;BME280;31595;51.418;7.572;2023-05-02T04:21:18;100660.06;;;13.69;64.54
45888;BME280;31595;51.418;7.572;2023-05-02T04:23:45;100662.72;;;13.65;64.50
45888;BME280;31595;51.418;7.572;2023-05-02T04:26:13;100664.53;;;13.70;64.69
45888;BME280;31595;51.418;7.572;2023-05-02T04:28:42;100673.41;;;13.72;65.39
45888;BME280;31595;51.418;7.572;2023-05-02T04:31:09;100664.69;;;13.73;64.64
45888;BME280;31595;51.418;7.572;2023-05-02T04:33:37;100678.69;;;13.73;64.01
45888;BME280;31595;51.418;7.572;2023-05-02T04:36:04;100678.34;;;13.75;64.72
45888;BME280;31595;51.418;7.572;2023-05-02T04:38:32;100685.44;;;13.72;63.78
45888;BME280;31595;51.418;7.572;2023-05-02T04:40:59;100682.78;;;13.76;64.41
45888;BME280;31595;51.418;7.572;2023-05-02T04:43:26;100696.31;;;13.74;64.48
45888;BME280;31595;51.418;7.572;2023-05-02T04:45:55;100701.72;;;13.79;64.33
45888;BME280;31595;51.418;7.572;2023-05-02T04:48:25;100700.22;;;13.81;64.55
45888;BME280;31595;51.418;7.572;2023-05-02T04:50:56;100704.19;;;13.80;64.33
45888;BME280;31595;51.418;7.572;2023-05-02T04:53:23;100699.41;;;13.81;65.11
45888;BME280;31595;51.418;7.572;2023-05-02T04:55:52;100712.28;;;13.82;64.99
45888;BME280;31595;51.418;7.572;2023-05-02T04:58:19;100713.09;;;13.83;64.62
45888;BME280;31595;51.418;7.572;2023-05-02T05:00:48;100718.69;;;13.83;64.78
45888;BME280;31595;51.418;7.572;2023-05-02T05:03:17;100719.00;;;13.81;65.04
45888;BME280;31595;51.418;7.572;2023-05-02T05:05:44;100723.13;;;13.84;64.76
45888;BME280;31595;51.418;7.572;2023-05-02T05:08:12;100721.97;;;13.85;64.60
45888;BME280;31595;51.418;7.572;2023-05-02T05:10:39;100722.31;;;13.83;65.94
45888;BME280;31595;51.418;7.572;2023-05-02T05:13:06;100731.69;;;13.78;65.62
45888;BME280;31595;51.418;7.572;2023-05-02T05:15:34;100744.06;;;13.77;65.66
45888;BME280;31595;51.418;7.572;2023-05-02T05:18:01;100738.47;;;13.77;66.35
45888;BME280;31595;51.418;7.572;2023-05-02T05:20:30;100739.94;;;13.75;67.08
45888;BME280;31595;51.418;7.572;2023-05-02T05:22:58;100745.38;;;13.71;67.67
45888;BME280;31595;51.418;7.572;2023-05-02T05:25:25;100753.78;;;13.71;67.86
45888;BME280;31595;51.418;7.572;2023-05-02T05:27:53;100758.22;;;13.72;67.08
45888;BME280;31595;51.418;7.572;2023-05-02T05:30:21;100758.88;;;13.69;67.90
45888;BME280;31595;51.418;7.572;2023-05-02T05:32:48;100756.59;;;13.71;68.58
45888;BME280;31595;51.418;7.572;2023-05-02T05:35:15;100764.63;;;13.73;68.53
45888;BME280;31595;51.418;7.572;2023-05-02T05:37:44;100768.91;;;13.70;68.88
45888;BME280;31595;51.418;7.572;2023-05-02T05:40:11;100772.53;;;13.71;67.96
45888;BME280;31595;51.418;7.572;2023-05-02T05:42:39;100771.72;;;13.70;69.18
45888;BME280;31595;51.418;7.572;2023-05-02T05:45:07;100773.88;;;13.73;68.86
45888;BME280;31595;51.418;7.572;2023-05-02T05:47:35;100774.88;;;13.77;68.10
45888;BME280;31595;51.418;7.572;2023-05-02T05:50:02;100785.72;;;13.79;69.05
45888;BME280;31595;51.418;7.572;2023-05-02T05:52:30;100785.88;;;13.83;68.65
45888;BME280;31595;51.418;7.572;2023-05-02T05:54:58;100780.47;;;13.86;68.83
45888;BME280;31595;51.418;7.572;2023-05-02T05:57:25;100786.22;;;13.90;68.63
45888;BME280;31595;51.418;7.572;2023-05-02T05:59:53;100786.22;;;13.90;67.90
45888;BME280;31595;51.418;7.572;2023-05-02T06:02:20;100793.66;;;13.94;67.45
45888;BME280;31595;51.418;7.572;2023-05-02T06:04:48;100792.31;;;13.92;69.02
45888;BME280;31595;51.418;7.572;2023-05-02T06:07:15;100794.59;;;13.90;69.28
45888;BME280;31595;51.418;7.572;2023-05-02T06:09:42;100798.72;;;13.84;68.24
45888;BME280;31595;51.418;7.572;2023-05-02T06:12:11;100802.03;;;13.86;68.79
45888;BME280;31595;51.418;7.572;2023-05-02T06:14:38;100808.47;;;13.86;69.38
45888;BME280;31595;51.418;7.572;2023-05-02T06:17:05;100808.47;;;13.86;68.99
45888;BME280;31595;51.418;7.572;2023-05-02T06:19:33;100818.81;;;13.86;67.52
45888;BME280;31595;51.418;7.572;2023-05-02T06:22:00;100824.75;;;13.75;67.79
45888;BME280;31595;51.418;7.572;2023-05-02T06:24:27;100817.31;;;13.79;69.31
45888;BME280;31595;51.418;7.572;2023-05-02T06:26:55;100825.25;;;13.77;68.46
45888;BME280;31595;51.418;7.572;2023-05-02T06:29:23;100824.28;;;13.73;68.40
45888;BME280;31595;51.418;7.572;2023-05-02T06:31:54;100819.63;;;13.69;69.60
45888;BME280;31595;51.418;7.572;2023-05-02T06:34:21;100825.72;;;13.62;69.82
45888;BME280;31595;51.418;7.572;2023-05-02T06:36:53;100832.00;;;13.76;70.87
45888;BME280;31595;51.418;7.572;2023-05-02T06:39:20;100838.25;;;13.73;69.58
45888;BME280;31595;51.418;7.572;2023-05-02T06:41:47;100844.19;;;13.72;68.46
45888;BME280;31595;51.418;7.572;2023-05-02T06:44:14;100852.91;;;13.79;66.53
45888;BME280;31595;51.418;7.572;2023-05-02T06:46:43;100847.69;;;14.04;67.20
45888;BME280;31595;51.418;7.572;2023-05-02T06:49:10;100861.19;;;14.19;65.30
45888;BME280;31595;51.418;7.572;2023-05-02T06:51:37;100865.81;;;14.41;65.21
45888;BME280;31595;51.418;7.572;2023-05-02T06:54:05;100866.31;;;14.60;63.36
45888;BME280;31595;51.418;7.572;2023-05-02T06:56:33;100866.94;;;14.75;63.33
45888;BME280;31595;51.418;7.572;2023-05-02T06:59:01;100873.84;;;14.86;62.04
45888;BME280;31595;51.418;7.572;2023-05-02T07:01:28;100876.31;;;14.88;62.35
45888;BME280;31595;51.418;7.572;2023-05-02T07:03:56;100868.84;;;15.00;61.74
45888;BME280;31595;51.418;7.572;2023-05-02T07:06:24;100879.69;;;15.19;61.07
45888;BME280;31595;51.418;7.572;2023-05-02T07:08:51;100880.97;;;15.22;60.35
45888;BME280;31595;51.418;7.572;2023-05-02T07:11:19;100883.63;;;15.27;60.08
45888;BME280;31595;51.418;7.572;2023-05-02T07:13:48;100887.25;;;15.28;60.81
45888;BME280;31595;51.418;7.572;2023-05-02T07:16:15;100897.31;;;15.29;60.95
45888;BME280;31595;51.418;7.572;2023-05-02T07:18:43;100892.66;;;15.41;60.11
45888;BME280;31595;51.418;7.572;2023-05-02T07:21:12;100901.56;;;15.43;59.81
45888;BME280;31595;51.418;7.572;2023-05-02T07:23:39;100909.66;;;15.36;59.15
45888;BME280;31595;51.418;7.572;2023-05-02T07:26:06;100916.56;;;15.39;59.53
45888;BME280;31595;51.418;7.572;2023-05-02T07:28:34;100911.31;;;15.37;59.37
45888;BME280;31595;51.418;7.572;2023-05-02T07:31:01;100913.78;;;15.39;58.84
45888;BME280;31595;51.418;7.572;2023-05-02T07:33:28;100923.47;;;15.50;58.86
45888;BME280;31595;51.418;7.572;2023-05-02T07:35:55;100913.34;;;15.58;59.46
45888;BME280;31595;51.418;7.572;2023-05-02T07:38:26;100918.81;;;15.63;59.35
45888;BME280;31595;51.418;7.572;2023-05-02T07:40:56;100929.50;;;15.70;58.73
45888;BME280;31595;51.418;7.572;2023-05-02T07:43:24;100926.34;;;15.80;58.08
45888;BME280;31595;51.418;7.572;2023-05-02T07:45:51;100930.78;;;15.81;57.31
45888;BME280;31595;51.418;7.572;2023-05-02T07:48:18;100932.44;;;15.82;57.71
45888;BME280;31595;51.418;7.572;2023-05-02T07:50:46;100927.84;;;15.77;57.34
45888;BME280;31595;51.418;7.572;2023-05-02T07:53:13;100937.59;;;15.71;57.29
45888;BME280;31595;51.418;7.572;2023-05-02T07:55:42;100941.47;;;15.49;58.37
45888;BME280;31595;51.418;7.572;2023-05-02T07:58:09;100949.78;;;15.37;58.29
45888;BME280;31595;51.418;7.572;2023-05-02T08:00:37;100949.00;;;15.28;59.08
45888;BME280;31595;51.418;7.572;2023-05-02T08:03:04;100950.16;;;15.18;59.00
45888;BME280;31595;51.418;7.572;2023-05-02T08:05:32;100951.97;;;15.14;58.84
45888;BME280;31595;51.418;7.572;2023-05-02T08:07:59;100959.94;;;14.94;58.26
45888;BME280;31595;51.418;7.572;2023-05-02T08:10:27;100968.84;;;14.96;59.06
45888;BME280;31595;51.418;7.572;2023-05-02T08:12:56;100960.97;;;14.81;59.95
45888;BME280;31595;51.418;7.572;2023-05-02T08:15:23;100973.16;;;14.68;60.71
45888;BME280;31595;51.418;7.572;2023-05-02T08:17:50;100969.38;;;14.64;60.53
45888;BME280;31595;51.418;7.572;2023-05-02T08:20:17;100979.41;;;14.47;61.05
45888;BME280;31595;51.418;7.572;2023-05-02T08:22:45;100982.16;;;14.30;61.68
45888;BME280;31595;51.418;7.572;2023-05-02T08:25:12;101003.19;;;13.92;61.67
45888;BME280;31595;51.418;7.572;2023-05-02T08:27:39;101011.75;;;13.56;61.66
45888;BME280;31595;51.418;7.572;2023-05-02T08:30:09;101013.78;;;13.42;62.20
45888;BME280;31595;51.418;7.572;2023-05-02T08:32:36;101017.28;;;13.25;62.78
45888;BME280;31595;51.418;7.572;2023-05-02T08:35:04;101019.47;;;13.05;62.27
45888;BME280;31595;51.418;7.572;2023-05-02T08:37:31;101028.41;;;12.93;62.76
45888;BME280;31595;51.418;7.572;2023-05-02T08:39:59;101036.50;;;12.95;62.63
45888;BME280;31595;51.418;7.572;2023-05-02T08:42:27;101040.09;;;12.73;63.84
45888;BME280;31595;51.418;7.572;2023-05-02T08:44:55;101048.41;;;12.64;63.93
45888;BME280;31595;51.418;7.572;2023-05-02T08:47:24;101055.84;;;12.69;63.37
45888;BME280;31595;51.418;7.572;2023-05-02T08:49:54;101055.19;;;12.72;63.11
45888;BME280;31595;51.418;7.572;2023-05-02T08:52:22;101067.91;;;12.78;62.88
45888;BME280;31595;51.418;7.572;2023-05-02T08:54:51;101064.16;;;12.83;62.30
45888;BME280;31595;51.418;7.572;2023-05-02T08:57:19;101063.25;;;12.87;61.90
45888;BME280;31595;51.418;7.572;2023-05-02T08:59:46;101065.72;;;12.89;61.94
45888;BME280;31595;51.418;7.572;2023-05-02T09:02:26;101076.72;;;12.85;61.37
45888;BME280;31595;51.418;7.572;2023-05-02T09:04:58;101073.78;;;12.90;62.03
45888;BME280;31595;51.418;7.572;2023-05-02T09:07:26;101077.47;;;12.99;60.76
45888;BME280;31595;51.418;7.572;2023-05-02T09:09:54;101086.97;;;13.12;61.19
45888;BME280;31595;51.418;7.572;2023-05-02T09:12:24;101092.50;;;13.26;61.33
45888;BME280;31595;51.418;7.572;2023-05-02T09:15:10;101095.00;;;13.28;61.11
45888;BME280;31595;51.418;7.572;2023-05-02T09:17:41;101106.59;;;13.35;60.84
45888;BME280;31595;51.418;7.572;2023-05-02T09:20:10;101114.03;;;13.39;59.33
45888;BME280;31595;51.418;7.572;2023-05-02T09:22:37;101111.56;;;13.24;59.75
45888;BME280;31595;51.418;7.572;2023-05-02T09:25:05;101113.50;;;13.37;60.76
45888;BME280;31595;51.418;7.572;2023-05-02T09:27:49;101107.56;;;13.53;60.94
45888;BME280;31595;51.418;7.572;2023-05-02T09:30:18;101117.72;;;13.71;59.24
45888;BME280;31595;51.418;7.572;2023-05-02T09:32:48;101110.84;;;13.77;59.54
45888;BME280;31595;51.418;7.572;2023-05-02T09:35:17;101121.34;;;13.72;58.07
45888;BME280;31595;51.418;7.572;2023-05-02T09:37:50;101124.72;;;13.60;58.39
45888;BME280;31595;51.418;7.572;2023-05-02T09:40:18;101124.09;;;13.63;59.61
45888;BME280;31595;51.418;7.572;2023-05-02T09:42:45;101124.34;;;13.75;59.03
45888;BME280;31595;51.418;7.572;2023-05-02T09:45:20;101123.38;;;13.80;58.19
45888;BME280;31595;51.418;7.572;2023-05-02T09:47:49;101127.13;;;13.75;59.11
45888;BME280;31595;51.418;7.572;2023-05-02T09:50:35;101134.63;;;13.66;59.06
45888;BME280;31595;51.418;7.572;2023-05-02T09:53:07;101141.31;;;13.56;59.79
45888;BME280;31595;51.418;7.572;2023-05-02T09:55:34;101146.53;;;13.49;59.31
45888;BME280;31595;51.418;7.572;2023-05-02T09:58:02;101157.16;;;13.38;58.43
45888;BME280;31595;51.418;7.572;2023-05-02T10:00:40;101154.81;;;13.18;58.59
45888;BME280;31595;51.418;7.572;2023-05-02T10:03:10;101154.72;;;13.09;59.08
45888;BME280;31595;51.418;7.572;2023-05-02T10:05:38;101158.34;;;13.10;59.16
45888;BME280;31595;51.418;7.572;2023-05-02T10:08:07;101161.66;;;13.12;60.04
45888;BME280;31595;51.418;7.572;2023-05-02T10:10:36;101166.31;;;13.16;59.84
45888;BME280;31595;51.418;7.572;2023-05-02T10:13:04;101167.75;;;13.28;59.15
45888;BME280;31595;51.418;7.572;2023-05-02T10:15:33;101170.63;;;13.36;58.52
45888;BME280;31595;51.418;7.572;2023-05-02T10:18:06;101171.22;;;13.47;58.29
45888;BME280;31595;51.418;7.572;2023-05-02T10:20:41;101175.75;;;13.57;57.88
45888;BME280;31595;51.418;7.572;2023-05-02T10:23:10;101174.84;;;13.70;57.43
45888;BME280;31595;51.418;7.572;2023-05-02T10:25:38;101175.09;;;13.83;57.40
45888;BME280;31595;51.418;7.572;2023-05-02T10:28:06;101169.03;;;13.89;56.74
45888;BME280;31595;51.418;7.572;2023-05-02T10:30:34;101171.72;;;13.94;55.45
45888;BME280;31595;51.418;7.572;2023-05-02T10:33:02;101168.63;;;14.05;55.92
45888;BME280;31595;51.418;7.572;2023-05-02T10:35:29;101176.72;;;14.06;55.22
45888;BME280;31595;51.418;7.572;2023-05-02T10:38:08;101172.13;;;14.10;54.67
45888;BME280;31595;51.418;7.572;2023-05-02T10:40:39;101176.09;;;14.09;55.70
45888;BME280;31595;51.418;7.572;2023-05-02T10:43:13;101174.38;;;13.99;54.86
45888;BME280;31595;51.418;7.572;2023-05-02T10:45:41;101168.84;;;13.86;55.50
45888;BME280;31595;51.418;7.572;2023-05-02T10:48:13;101178.53;;;13.79;55.92
45888;BME280;31595;51.418;7.572;2023-05-02T10:50:45;101174.13;;;13.65;54.50
45888;BME280;31595;51.418;7.572;2023-05-02T10:53:25;101171.53;;;13.68;54.37
45888;BME280;31595;51.418;7.572;2023-05-02T10:56:13;101179.06;;;13.59;53.48
45888;BME280;31595;51.418;7.572;2023-05-02T10:58:41;101183.50;;;13.60;54.21
45888;BME280;31595;51.418;7.572;2023-05-02T11:01:31;101186.69;;;13.67;53.45
45888;BME280;31595;51.418;7.572;2023-05-02T11:04:02;101188.34;;;13.68;53.81
45888;BME280;31595;51.418;7.572;2023-05-02T11:06:35;101186.44;;;13.77;52.94
45888;BME280;31595;51.418;7.572;2023-05-02T11:09:31;101185.22;;;13.70;54.12
45888;BME280;31595;51.418;7.572;2023-05-02T11:12:02;101183.00;;;13.80;53.21
45888;BME280;31595;51.418;7.572;2023-05-02T11:14:45;101190.44;;;13.85;54.46
45888;BME280;31595;51.418;7.572;2023-05-02T11:17:14;101188.91;;;14.01;53.73
45888;BME280;31595;51.418;7.572;2023-05-02T11:23:23;101180.84;;;14.40;53.11
45888;BME280;31595;51.418;7.572;2023-05-02T11:25:54;101199.16;;;14.69;52.02
45888;BME280;31595;51.418;7.572;2023-05-02T11:28:44;101188.25;;;14.76;51.94
45888;BME280;31595;51.418;7.572;2023-05-02T11:34:41;101191.56;;;14.78;51.71
45888;BME280;31595;51.418;7.572;2023-05-02T11:37:10;101197.16;;;14.69;51.34
45888;BME280;31595;51.418;7.572;2023-05-02T11:39:38;101197.34;;;14.73;52.93
45888;BME280;31595;51.418;7.572;2023-05-02T11:42:07;101202.28;;;14.76;51.53
45888;BME280;31595;51.418;7.572;2023-05-02T11:44:54;101205.94;;;14.76;51.69
45888;BME280;31595;51.418;7.572;2023-05-02T11:47:21;101204.91;;;14.64;50.84
45888;BME280;31595;51.418;7.572;2023-05-02T11:49:48;101203.19;;;14.54;51.27
45888;BME280;31595;51.418;7.572;2023-05-02T11:52:16;101208.75;;;14.45;52.07
45888;BME280;31595;51.418;7.572;2023-05-02T11:54:43;101206.22;;;14.35;51.39
45888;BME280;31595;51.418;7.572;2023-05-02T11:57:12;101211.84;;;14.35;52.20
45888;BME280;31595;51.418;7.572;2023-05-02T11:59:49;101206.31;;;14.21;51.49
45888;BME280;31595;51.418;7.572;2023-05-02T12:02:17;101211.44;;;14.28;52.22
45888;BME280;31595;51.418;7.572;2023-05-02T12:04:44;101216.16;;;14.41;51.81
45888;BME280;31595;51.418;7.572;2023-05-02T12:07:13;101216.66;;;14.74;50.37
45888;BME280;31595;51.418;7.572;2023-05-02T12:09:50;101215.44;;;15.24;49.18
45888;BME280;31595;51.418;7.572;2023-05-02T12:12:20;101215.47;;;15.59;47.55
45888;BME280;31595;51.418;7.572;2023-05-02T12:14:47;101218.28;;;15.85;46.82
45888;BME280;31595;51.418;7.572;2023-05-02T12:17:16;101218.16;;;16.55;46.34
45888;BME280;31595;51.418;7.572;2023-05-02T12:19:43;101217.00;;;17.24;44.95
45888;BME280;31595;51.418;7.572;2023-05-02T12:22:10;101206.22;;;18.01;43.88
45888;BME280;31595;51.418;7.572;2023-05-02T12:24:39;101218.66;;;18.79;41.83
45888;BME280;31595;51.418;7.572;2023-05-02T12:27:09;101216.03;;;19.76;40.13
45888;BME280;31595;51.418;7.572;2023-05-02T12:29:39;101209.03;;;20.30;39.05
45888;BME280;31595;51.418;7.572;2023-05-02T12:32:07;101222.63;;;20.68;37.85
45888;BME280;31595;51.418;7.572;2023-05-02T12:34:35;101209.41;;;21.24;36.08
45888;BME280;31595;51.418;7.572;2023-05-02T12:37:04;101200.22;;;21.66;34.58
45888;BME280;31595;51.418;7.572;2023-05-02T12:39:35;101192.72;;;24.81;31.19
45888;BME280;31595;51.418;7.572;2023-05-02T12:42:09;101193.56;;;26.75;28.01
45888;BME280;31595;51.418;7.572;2023-05-02T12:44:39;101196.16;;;25.67;28.36
45888;BME280;31595;51.418;7.572;2023-05-02T12:47:08;101195.63;;;24.85;28.83
45888;BME280;31595;51.418;7.572;2023-05-02T12:49:47;101212.59;;;23.92;30.26
45888;BME280;31595;51.418;7.572;2023-05-02T12:52:15;101208.31;;;23.18;31.03
45888;BME280;31595;51.418;7.572;2023-05-02T12:54:42;101214.25;;;22.60;31.79
45888;BME280;31595;51.418;7.572;2023-05-02T12:57:09;101215.44;;;22.16;31.96
45888;BME280;31595;51.418;7.572;2023-05-02T12:59:40;101212.75;;;22.04;33.11
45888;BME280;31595;51.418;7.572;2023-05-02T13:02:08;101218.59;;;21.53;33.42
45888;BME280;31595;51.418;7.572;2023-05-02T13:04:35;101218.06;;;20.96;33.62
45888;BME280;31595;51.418;7.572;2023-05-02T13:07:04;101230.59;;;20.35;34.49
45888;BME280;31595;51.418;7.572;2023-05-02T13:09:31;101234.03;;;20.12;35.33